Arcadia, Kansas
Current Conditions -  °F | °C
As of 1:15 PM on Friday 31 Oct 2014 (Local Time) from KPTS Reporting Station
Clear Clear  
Wind Chill: 42°   Ceiling: Unl
Heat Index: 47°   Visibility: 10mi
Dew Point: 28°   Wind: 13mph
Humidity: 47%   Direction: 20°NNE
Pressure: 30.42"   Gusts: 17mph
Location:  37.64°N, 94.62°W
Report Text: KPTS 311815Z AUTO 02011G15KT 10SM CLR 09/M02 A3042 RMK AO2 T00861021
Loading
Personal Weather Stations






























Interactive Weather Map
Tropical Storm Tracking
New forecast layout! Learn more

10-Day Weather Forecast

Advertisements
Track Severe Weather on mobile